Time;durP1;ratioP1;P1;durP2;ratioP2;P2;SDS_P1;SDS_P2;PMS_P1;PMS_P2;Temp;Humidity;BMP_temperature;BMP_pressure;BME280_temperature;BME280_humidity;BME280_pressure;Samples;Min_cycle;Max_cycle;Signal;HPM_P1;HPM_P2
2021/07/14 00:01:16;;;;;;;9.80;2.50;;;;;;;19.14;64.89;97459.44;8385409;28;20208;-65
2021/07/14 00:05:20;;;;;;;9.40;2.80;;;;;;;19.12;64.77;97462.19;8399842;28;20231;-64
2021/07/14 00:09:23;;;;;;;3.70;2.57;;;;;;;19.14;65.34;97443.69;8399898;28;20203;-65
2021/07/14 00:13:30;;;;;;;10.13;2.47;;;;;;;19.20;65.20;97426.56;8384383;28;20201;-64
2021/07/14 00:17:49;;;;;;;4.50;2.60;;;;;;;19.17;65.16;97422.38;8384214;28;20223;-65
2021/07/14 00:22:11;;;;;;;6.97;2.60;;;;;;;19.15;65.49;97413.81;8384134;28;20207;-65
2021/07/14 00:26:14;;;;;;;6.73;2.60;;;;;;;19.09;65.74;97409.13;8384001;28;20205;-65
2021/07/14 00:30:24;;;;;;;6.03;2.80;;;;;;;19.10;65.50;97423.91;8383702;28;20426;-65
2021/07/14 00:34:28;;;;;;;4.67;2.50;;;;;;;19.12;65.80;97424.63;8385809;28;20321;-65
2021/07/14 00:38:30;;;;;;;4.97;2.90;;;;;;;19.05;65.44;97416.44;8383224;28;20207;-65
2021/07/14 00:42:33;;;;;;;9.33;2.57;;;;;;;19.04;65.75;97421.81;8383352;28;20382;-65
2021/07/14 00:46:38;;;;;;;9.03;2.63;;;;;;;19.08;66.09;97413.56;8383074;28;20204;-65
2021/07/14 00:50:42;;;;;;;6.60;2.50;;;;;;;19.06;65.41;97402.38;8383143;28;20210;-65
2021/07/14 00:54:46;;;;;;;4.50;2.33;;;;;;;19.08;65.85;97397.00;8382338;28;20448;-66
2021/07/14 00:58:49;;;;;;;5.20;2.90;;;;;;;19.02;65.07;97387.00;8381631;28;20199;-65
2021/07/14 01:02:52;;;;;;;6.60;2.77;;;;;;;18.95;65.68;97384.94;8381923;28;20200;-65
2021/07/14 01:07:01;;;;;;;8.13;2.90;;;;;;;18.98;65.41;97393.50;8381698;28;20220;-65
2021/07/14 01:11:08;;;;;;;9.37;2.87;;;;;;;18.85;66.06;97417.34;8381689;28;20199;-65
2021/07/14 01:15:13;;;;;;;6.60;2.70;;;;;;;18.80;65.82;97425.63;8381661;28;20228;-65
2021/07/14 01:19:30;;;;;;;10.13;2.87;;;;;;;18.78;66.21;97410.97;8380878;28;20199;-65
2021/07/14 01:23:45;;;;;;;8.00;3.13;;;;;;;18.89;65.80;97410.88;8381208;28;20207;-65
2021/07/14 01:27:50;;;;;;;12.63;3.40;;;;;;;18.89;65.86;97422.19;8381071;28;20230;-65
2021/07/14 01:31:53;;;;;;;8.33;3.33;;;;;;;18.70;66.28;97412.44;8381027;28;20207;-65
2021/07/14 01:35:58;;;;;;;7.50;3.20;;;;;;;18.81;66.30;97389.72;8380827;28;20294;-65
2021/07/14 01:40:04;;;;;;;9.73;2.63;;;;;;;18.81;66.33;97393.19;8381129;28;20200;-65
2021/07/14 01:44:08;;;;;;;6.87;2.97;;;;;;;18.83;66.37;97399.13;8381170;28;20474;-65
2021/07/14 01:48:11;;;;;;;11.17;3.00;;;;;;;18.86;66.20;97406.72;8380749;28;20208;-65
2021/07/14 01:52:18;;;;;;;7.67;3.07;;;;;;;18.84;66.49;97415.69;8380700;28;20207;-65
2021/07/14 01:56:22;;;;;;;12.50;3.10;;;;;;;18.34;67.62;97422.50;8380541;28;20235;-65
2021/07/14 02:00:27;;;;;;;9.53;3.10;;;;;;;18.70;66.57;97433.41;8380632;28;20219;-65
2021/07/14 02:04:32;;;;;;;12.93;3.50;;;;;;;18.67;67.02;97449.41;8380637;28;20212;-65
2021/07/14 02:08:36;;;;;;;10.70;3.23;;;;;;;18.78;66.33;97460.78;8380322;28;20228;-65
2021/07/14 02:12:39;;;;;;;8.53;3.07;;;;;;;18.76;66.32;97463.53;8380431;28;20403;-65
2021/07/14 02:16:44;;;;;;;6.30;4.03;;;;;;;18.63;66.78;97478.66;8380264;28;20234;-64
2021/07/14 02:20:47;;;;;;;8.50;3.63;;;;;;;18.69;66.32;97473.72;8380356;28;20207;-65
2021/07/14 02:24:50;;;;;;;7.13;3.80;;;;;;;18.72;66.05;97467.41;8380248;28;20211;-65
2021/07/14 02:28:53;;;;;;;7.90;3.97;;;;;;;18.73;66.23;97453.31;8379902;28;20243;-65
2021/07/14 02:32:59;;;;;;;12.03;4.03;;;;;;;18.74;65.85;97449.72;8385237;28;20199;-65
2021/07/14 02:37:05;;;;;;;11.17;4.30;;;;;;;18.69;66.10;97439.63;8386440;28;20246;-65
2021/07/14 02:41:12;;;;;;;7.93;3.70;;;;;;;18.75;65.93;97435.63;8386344;28;20211;-65
2021/07/14 02:45:15;;;;;;;10.00;3.87;;;;;;;18.71;65.84;97442.13;8386400;28;20199;-65
2021/07/14 02:49:25;;;;;;;11.10;4.30;;;;;;;18.65;66.43;97429.53;8386056;28;20212;-65
2021/07/14 02:53:30;;;;;;;7.70;4.10;;;;;;;18.68;66.08;97426.66;8386468;28;20204;-65
2021/07/14 02:57:38;;;;;;;15.63;4.53;;;;;;;18.59;66.13;97416.97;8385789;28;20235;-65
2021/07/14 03:01:42;;;;;;;12.60;4.20;;;;;;;18.52;66.40;97406.16;8385796;28;20204;-65
2021/07/14 03:05:47;;;;;;;8.10;4.30;;;;;;;18.55;65.94;97396.22;8385517;28;20230;-65
2021/07/14 03:09:50;;;;;;;10.07;4.40;;;;;;;18.54;65.70;97404.22;8385455;28;20206;-65
2021/07/14 03:13:54;;;;;;;8.03;4.30;;;;;;;18.49;66.13;97399.38;8384893;28;20199;-65
2021/07/14 03:17:58;;;;;;;7.67;4.87;;;;;;;18.51;66.17;97407.94;8385251;28;20266;-64
2021/07/14 03:22:03;;;;;;;5.50;4.13;;;;;;;18.48;66.24;97408.19;8384925;28;20207;-64
2021/07/14 03:26:06;;;;;;;11.73;4.43;;;;;;;18.48;65.87;97412.63;8384790;28;20204;-65
2021/07/14 03:30:11;;;;;;;7.67;4.30;;;;;;;18.58;65.95;97410.03;8384874;28;20235;-65
2021/07/14 03:34:14;;;;;;;10.27;4.77;;;;;;;18.46;65.85;97414.53;8385492;28;20464;-65
2021/07/14 03:38:19;;;;;;;7.77;4.63;;;;;;;18.39;66.10;97416.03;8384497;28;20251;-64
2021/07/14 03:42:22;;;;;;;5.83;4.40;;;;;;;18.40;66.12;97418.50;8383714;28;20382;-64
2021/07/14 03:46:26;;;;;;;8.80;4.47;;;;;;;18.49;66.07;97427.41;8384350;28;20390;-65
2021/07/14 03:50:29;;;;;;;8.53;4.50;;;;;;;18.44;66.21;97422.53;8383784;28;20207;-64
2021/07/14 03:54:33;;;;;;;7.10;4.20;;;;;;;18.55;65.94;97411.16;8384194;28;20212;-64
2021/07/14 03:58:38;;;;;;;8.83;4.80;;;;;;;18.55;65.89;97422.44;8383860;28;20223;-64
2021/07/14 04:02:44;;;;;;;10.70;4.30;;;;;;;18.56;65.65;97418.88;8383786;28;20219;-64
2021/07/14 04:06:50;;;;;;;7.80;4.77;;;;;;;18.62;65.70;97422.78;8383487;28;20223;-64
2021/07/14 04:10:55;;;;;;;7.20;4.53;;;;;;;18.65;65.94;97419.03;8383415;28;20233;-65
2021/07/14 04:14:58;;;;;;;6.90;4.40;;;;;;;18.65;65.68;97416.41;8383354;28;20205;-65
2021/07/14 04:19:01;;;;;;;11.47;4.50;;;;;;;18.65;65.70;97416.41;8383190;28;20251;-65
2021/07/14 04:23:04;;;;;;;11.80;3.90;;;;;;;18.70;65.68;97409.81;8382875;28;20222;-65
2021/07/14 04:27:09;;;;;;;7.50;4.63;;;;;;;18.65;65.53;97406.75;8383162;28;20207;-64
2021/07/14 04:31:12;;;;;;;8.53;3.93;;;;;;;18.72;65.88;97412.31;8382574;28;20240;-64
2021/07/14 04:35:15;;;;;;;10.93;4.17;;;;;;;18.87;65.57;97411.00;8382681;28;20199;-65
2021/07/14 04:39:20;;;;;;;12.03;4.87;;;;;;;18.82;65.59;97399.25;8382800;28;20512;-65
2021/07/14 04:43:24;;;;;;;9.07;4.40;;;;;;;18.80;65.63;97393.28;8382707;28;20206;-65
2021/07/14 04:47:26;;;;;;;10.63;4.60;;;;;;;18.70;65.62;97404.56;8382811;28;20204;-65
2021/07/14 04:51:30;;;;;;;8.67;4.87;;;;;;;18.76;65.89;97406.66;8382349;28;20205;-65
2021/07/14 04:55:33;;;;;;;6.87;4.90;;;;;;;18.81;65.50;97414.19;8400834;28;20196;-65
2021/07/14 04:59:37;;;;;;;7.20;4.60;;;;;;;18.76;65.16;97422.41;8414476;28;20223;-65
2021/07/14 05:03:40;;;;;;;9.17;4.77;;;;;;;18.86;65.13;97417.22;8405256;28;20507;-65
2021/07/14 05:07:44;;;;;;;9.97;5.20;;;;;;;18.84;65.48;97429.63;8390077;28;20221;-64
2021/07/14 05:11:47;;;;;;;8.63;5.23;;;;;;;18.76;65.80;97442.56;8397340;28;20486;-66
2021/07/14 05:15:52;;;;;;;10.57;5.10;;;;;;;18.79;65.90;97447.56;8380846;28;20294;-65
2021/07/14 05:19:55;;;;;;;14.53;5.50;;;;;;;18.71;66.10;97456.03;8381175;28;20367;-65
2021/07/14 05:23:58;;;;;;;8.27;4.87;;;;;;;18.78;65.73;97461.63;8381143;28;20221;-65
2021/07/14 05:28:01;;;;;;;6.80;4.77;;;;;;;18.79;65.60;97459.81;8381094;28;20412;-65
2021/07/14 05:32:06;;;;;;;7.30;5.00;;;;;;;18.76;65.49;97437.31;8381415;28;20200;-66
2021/07/14 05:36:11;;;;;;;6.23;4.83;;;;;;;18.81;65.63;97434.31;8380321;28;20219;-65
2021/07/14 05:40:14;;;;;;;7.27;5.30;;;;;;;18.81;65.89;97436.94;8380971;28;20214;-65
2021/07/14 05:44:17;;;;;;;11.30;5.93;;;;;;;18.80;66.17;97432.63;8380892;28;20210;-66
2021/07/14 05:48:21;;;;;;;11.47;5.90;;;;;;;18.82;66.20;97442.06;8381348;28;20204;-65
2021/07/14 05:52:24;;;;;;;18.07;5.70;;;;;;;18.82;66.49;97430.75;8380754;28;20271;-65
2021/07/14 05:56:27;;;;;;;12.03;6.53;;;;;;;18.73;66.26;97442.81;8380167;28;20200;-65
2021/07/14 06:00:30;;;;;;;9.17;5.30;;;;;;;18.75;66.34;97444.34;8380236;28;20200;-65
2021/07/14 06:04:34;;;;;;;9.73;5.20;;;;;;;18.85;66.61;97443.56;8381698;28;20396;-65
2021/07/14 06:08:37;;;;;;;11.93;5.73;;;;;;;18.88;66.88;97432.81;8386866;28;20223;-65
2021/07/14 06:12:40;;;;;;;9.47;5.80;;;;;;;18.82;66.81;97436.00;8386692;28;20214;-65
2021/07/14 06:16:43;;;;;;;7.80;5.83;;;;;;;18.89;66.52;97434.50;8386856;28;20530;-65
2021/07/14 06:20:47;;;;;;;8.40;5.90;;;;;;;18.87;66.61;97444.28;8387033;28;20200;-65
2021/07/14 06:24:50;;;;;;;10.53;6.60;;;;;;;18.82;66.68;97436.00;8386920;28;20204;-65
2021/07/14 06:29:13;;;;;;;8.90;5.23;;;;;;;18.86;66.62;97419.84;8387082;28;20557;-65
2021/07/14 06:33:16;;;;;;;6.57;5.23;;;;;;;18.88;66.93;97420.53;8387002;28;20278;-65
2021/07/14 06:37:20;;;;;;;9.47;6.20;;;;;;;18.80;66.84;97424.75;8386740;28;20228;-65
2021/07/14 06:41:23;;;;;;;7.97;5.97;;;;;;;18.87;66.52;97428.56;8386602;28;20359;-65
2021/07/14 06:45:27;;;;;;;8.10;6.13;;;;;;;18.88;66.47;97419.72;8386532;28;20381;-65
2021/07/14 06:49:31;;;;;;;8.13;6.47;;;;;;;18.80;66.65;97409.88;8386771;28;20449;-65
2021/07/14 06:53:35;;;;;;;8.87;6.07;;;;;;;18.84;66.73;97410.44;8386587;28;20212;-65
2021/07/14 06:57:38;;;;;;;11.87;6.40;;;;;;;18.92;66.92;97403.59;8386221;28;20223;-65
2021/07/14 07:01:41;;;;;;;8.13;5.80;;;;;;;18.85;66.26;97418.19;8386174;28;20491;-65
2021/07/14 07:05:44;;;;;;;8.30;6.03;;;;;;;18.86;66.17;97417.22;8385823;28;20220;-65
2021/07/14 07:09:48;;;;;;;9.37;5.40;;;;;;;18.90;66.30;97413.34;8385798;28;20208;-65
2021/07/14 07:13:51;;;;;;;9.73;5.50;;;;;;;18.89;66.10;97432.69;8385723;28;20200;-65
2021/07/14 07:17:54;;;;;;;9.10;6.33;;;;;;;18.69;66.48;97439.63;8384850;28;20270;-65
2021/07/14 07:21:58;;;;;;;6.97;6.27;;;;;;;18.67;66.52;97453.84;8385931;28;20487;-65
2021/07/14 07:26:02;;;;;;;8.50;6.03;;;;;;;18.92;66.49;97431.59;8385241;28;20200;-65
2021/07/14 07:30:07;;;;;;;8.10;5.73;;;;;;;19.09;66.12;97407.31;8385247;28;20227;-66
2021/07/14 07:34:10;;;;;;;6.97;5.30;;;;;;;19.15;66.13;97411.19;8385087;28;20212;-65
2021/07/14 07:38:12;;;;;;;11.03;6.27;;;;;;;19.30;66.33;97416.91;8385144;28;20234;-65
2021/07/14 07:42:17;;;;;;;6.53;5.93;;;;;;;19.59;65.92;97411.69;8384836;28;20206;-66
2021/07/14 07:46:21;;;;;;;10.73;6.17;;;;;;;19.78;65.78;97429.28;8384665;28;20491;-65
2021/07/14 07:50:24;;;;;;;7.30;6.37;;;;;;;19.71;65.47;97443.88;8384746;28;20277;-65
2021/07/14 07:54:27;;;;;;;7.10;6.37;;;;;;;19.55;65.32;97460.16;8384359;28;20200;-65
2021/07/14 07:58:31;;;;;;;10.40;6.20;;;;;;;19.48;65.76;97470.41;8383889;28;20239;-65
2021/07/14 08:02:34;;;;;;;8.83;6.43;;;;;;;19.07;65.63;97482.72;8383455;28;20382;-65
2021/07/14 08:06:37;;;;;;;8.07;6.30;;;;;;;19.20;66.27;97472.00;8383066;28;20219;-65
2021/07/14 08:10:39;;;;;;;7.23;5.73;;;;;;;19.41;66.62;97429.09;8383161;28;20208;-65
2021/07/14 08:14:44;;;;;;;5.97;5.47;;;;;;;19.70;66.40;97429.94;8382806;28;20200;-65
2021/07/14 08:18:46;;;;;;;6.30;5.47;;;;;;;19.85;64.70;97466.31;8383572;28;20224;-65
2021/07/14 08:22:50;;;;;;;6.87;4.77;;;;;;;20.36;62.86;97469.59;8383618;28;20200;-65
2021/07/14 08:26:53;;;;;;;5.23;4.70;;;;;;;20.10;63.44;97475.44;8383439;28;20206;-66
2021/07/14 08:31:12;;;;;;;7.20;4.33;;;;;;;20.27;63.52;97471.25;8383293;28;20243;-65
2021/07/14 08:35:15;;;;;;;4.63;4.07;;;;;;;20.41;63.14;97464.72;8383458;28;20214;-66
2021/07/14 08:39:20;;;;;;;4.43;3.87;;;;;;;20.26;62.14;97465.19;8383142;28;20508;-65
2021/07/14 08:43:27;;;;;;;5.30;2.57;;;;;;;21.17;64.37;97455.88;8383004;28;20203;-66
2021/07/14 08:47:33;;;;;;;10.97;3.87;;;;;;;21.16;64.28;97462.13;8382885;28;20495;-65
2021/07/14 08:51:37;;;;;;;8.00;3.13;;;;;;;21.39;63.38;97475.72;8383207;28;20510;-65
2021/07/14 08:55:40;;;;;;;12.07;2.93;;;;;;;21.79;61.91;97472.69;8389292;28;20213;-64
2021/07/14 08:59:44;;;;;;;9.83;2.97;;;;;;;21.26;62.03;97492.66;8415178;28;20223;-65
2021/07/14 09:03:48;;;;;;;6.80;2.50;;;;;;;21.31;62.16;97486.16;8415368;28;20201;-64
2021/07/14 09:07:51;;;;;;;5.30;2.10;;;;;;;21.04;62.30;97488.66;8415794;28;20417;-64
2021/07/14 09:11:57;;;;;;;3.67;2.43;;;;;;;21.25;61.92;97490.22;8415105;28;20232;-65
2021/07/14 09:16:00;;;;;;;5.07;2.30;;;;;;;21.16;61.85;97489.28;8405613;28;20205;-65
2021/07/14 09:20:11;;;;;;;9.50;2.50;;;;;;;21.16;60.70;97488.44;8415057;28;20237;-65
2021/07/14 09:24:32;;;;;;;4.13;2.30;;;;;;;21.05;61.43;97494.72;8415284;28;20199;-65
2021/07/14 09:28:36;;;;;;;4.90;2.20;;;;;;;21.09;60.42;97499.56;8415245;28;20545;-64
2021/07/14 09:32:51;;;;;;;7.20;2.17;;;;;;;21.33;60.09;97495.56;8415579;28;20205;-65
2021/07/14 09:37:01;;;;;;;4.13;2.27;;;;;;;21.30;60.11;97495.84;8414976;28;20211;-65
2021/07/14 09:41:05;;;;;;;4.13;1.90;;;;;;;21.36;60.44;97504.97;8413962;28;20318;-65
2021/07/14 09:45:08;;;;;;;4.20;2.53;;;;;;;21.51;59.37;97508.78;8414553;28;20390;-65
2021/07/14 09:49:14;;;;;;;3.53;2.30;;;;;;;21.58;58.61;97519.56;8414504;28;20206;-64
2021/07/14 09:53:20;;;;;;;6.53;3.13;;;;;;;21.52;59.69;97518.34;8411601;28;20592;-65
2021/07/14 09:57:25;;;;;;;3.87;2.13;;;;;;;21.53;59.52;97527.09;8381157;28;20197;-68
2021/07/14 10:01:34;;;;;;;5.77;2.50;;;;;;;21.47;58.60;97531.97;8380898;28;20227;-68
2021/07/14 10:05:38;;;;;;;9.60;2.20;;;;;;;21.58;59.37;97535.38;8380711;28;20246;-69
2021/07/14 10:09:43;;;;;;;3.67;2.20;;;;;;;21.73;58.81;97527.81;8380780;28;20204;-68
2021/07/14 10:13:58;;;;;;;4.27;2.30;;;;;;;21.88;58.25;97531.59;8380952;28;20212;-68
2021/07/14 10:18:01;;;;;;;3.20;2.07;;;;;;;21.78;58.55;97536.91;8402454;28;20205;-68
2021/07/14 10:22:05;;;;;;;2.80;2.20;;;;;;;21.50;58.14;97537.94;8414125;28;20339;-69
2021/07/14 10:26:09;;;;;;;5.83;2.23;;;;;;;21.39;57.90;97538.91;8414329;28;20210;-69
2021/07/14 10:30:14;;;;;;;5.70;2.53;;;;;;;21.35;59.08;97543.66;8413416;28;20239;-69
2021/07/14 10:34:20;;;;;;;4.43;2.17;;;;;;;22.01;57.27;97545.22;8413521;28;20267;-69
2021/07/14 10:38:24;;;;;;;4.37;2.40;;;;;;;22.01;55.79;97539.94;8413808;28;20232;-69
2021/07/14 10:42:28;;;;;;;4.40;1.90;;;;;;;22.34;55.48;97534.16;8413737;28;20365;-69
2021/07/14 10:46:31;;;;;;;4.73;2.20;;;;;;;22.25;56.74;97531.44;8413390;28;20209;-69
2021/07/14 10:50:34;;;;;;;4.07;2.20;;;;;;;22.49;55.70;97529.97;8413620;28;20507;-69
2021/07/14 10:54:37;;;;;;;4.23;2.37;;;;;;;22.41;55.49;97519.38;8419517;28;20385;-69
2021/07/14 10:58:42;;;;;;;4.93;2.20;;;;;;;22.52;54.91;97520.94;8419534;28;20234;-69
2021/07/14 11:02:47;;;;;;;7.70;2.33;;;;;;;22.34;55.98;97515.69;8419463;28;20345;-68
2021/07/14 11:06:56;;;;;;;6.23;2.13;;;;;;;22.69;54.48;97513.94;8418986;28;20252;-69
2021/07/14 11:10:59;;;;;;;2.43;1.90;;;;;;;22.27;55.56;97528.66;8419079;28;20267;-68
2021/07/14 11:15:04;;;;;;;7.77;2.30;;;;;;;22.45;55.52;97526.00;8418820;28;20311;-68
2021/07/14 11:19:09;;;;;;;6.70;2.73;;;;;;;22.19;56.24;97528.56;8418870;28;20534;-68
2021/07/14 11:23:20;;;;;;;4.57;2.90;;;;;;;22.01;55.55;97523.31;8418452;28;20493;-69
2021/07/14 11:27:43;;;;;;;10.60;3.20;;;;;;;22.29;55.92;97517.94;8418647;28;20203;-65
2021/07/14 11:31:48;;;;;;;6.47;2.63;;;;;;;22.89;53.81;97512.75;8409900;28;20206;-64
2021/07/14 11:35:54;;;;;;;8.50;2.67;;;;;;;22.90;54.17;97511.75;8418037;28;20210;-66
2021/07/14 11:40:34;;;;;;;5.93;2.80;;;;;;;22.93;54.52;97502.72;8418642;28;20234;-64
2021/07/14 11:44:38;;;;;;;4.20;1.90;;;;;;;23.05;52.52;97505.94;8418015;28;20230;-65
2021/07/14 11:48:44;;;;;;;4.10;1.73;;;;;;;23.70;51.73;97502.66;8417790;28;20214;-65
2021/07/14 11:52:48;;;;;;;4.00;1.80;;;;;;;23.12;53.28;97501.69;8417482;28;20199;-65
2021/07/14 11:56:52;;;;;;;3.63;1.90;;;;;;;22.97;53.21;97498.75;8417389;28;20206;-65
2021/07/14 12:00:55;;;;;;;4.37;1.40;;;;;;;22.75;52.66;97506.25;8417328;28;20223;-65
2021/07/14 12:05:08;;;;;;;4.83;1.70;;;;;;;22.82;52.83;97495.88;8416727;28;20202;-65
2021/07/14 12:09:38;;;;;;;1.57;1.10;;;;;;;22.76;52.46;97507.88;8416854;28;20210;-65
2021/07/14 12:13:41;;;;;;;3.57;1.20;;;;;;;22.70;52.42;97505.06;8398227;28;20215;-65
2021/07/14 12:17:44;;;;;;;2.23;1.30;;;;;;;22.60;53.61;97502.53;8393471;28;20218;-65
2021/07/14 12:21:49;;;;;;;1.43;1.30;;;;;;;22.55;53.80;97495.06;8398895;28;20237;-65
2021/07/14 12:26:02;;;;;;;2.60;1.30;;;;;;;22.63;51.50;97483.72;8389092;28;20269;-65
2021/07/14 12:30:06;;;;;;;1.20;1.10;;;;;;;22.83;52.64;97473.78;8383125;28;20239;-65
2021/07/14 12:34:09;;;;;;;1.67;1.10;;;;;;;23.08;50.89;97472.13;8382961;28;20200;-69
2021/07/14 12:38:15;;;;;;;1.00;0.90;;;;;;;23.56;50.62;97465.31;8382722;28;20226;-70
2021/07/14 12:42:21;;;;;;;4.83;1.00;;;;;;;23.33;50.71;97475.66;8390592;28;20241;-68
2021/07/14 12:46:25;;;;;;;3.07;1.20;;;;;;;;;;8382403;28;20211;-71
2021/07/14 12:50:28;;;;;;;1.87;1.00;;;;;;;23.65;49.21;97476.75;8382647;28;20206;-69
2021/07/14 12:54:32;;;;;;;11.30;1.10;;;;;;;23.95;48.26;97471.81;8382147;28;20226;-70
2021/07/14 12:58:35;;;;;;;4.87;1.37;;;;;;;23.80;49.48;97474.31;8382163;28;20207;-70
2021/07/14 13:02:40;;;;;;;3.57;1.20;;;;;;;23.66;49.55;97469.63;8381800;28;20231;-71
2021/07/14 13:06:43;;;;;;;3.13;1.10;;;;;;;24.37;48.14;97474.31;8400615;28;20215;-70
2021/07/14 13:10:47;;;;;;;5.30;1.40;;;;;;;24.28;48.57;97477.94;8414477;28;20207;-71
2021/07/14 13:14:51;;;;;;;2.33;1.00;;;;;;;24.25;48.24;97480.91;8413761;28;20199;-71
2021/07/14 13:18:59;;;;;;;3.00;1.17;;;;;;;24.49;47.55;97476.63;8414850;28;20210;-70
2021/07/14 13:23:02;;;;;;;2.20;1.20;;;;;;;24.37;47.25;97469.03;8415654;28;20275;-71
2021/07/14 13:27:06;;;;;;;3.60;1.13;;;;;;;23.77;47.61;97469.31;8416404;28;20207;-72
2021/07/14 13:31:09;;;;;;;3.97;1.30;;;;;;;23.56;48.95;97469.78;8413977;28;20235;-72
2021/07/14 13:35:13;;;;;;;1.93;1.10;;;;;;;23.53;49.72;97473.59;8413838;28;20198;-70
2021/07/14 13:39:17;;;;;;;2.10;1.10;;;;;;;23.48;50.33;97475.06;8400363;28;20497;-65
2021/07/14 13:43:21;;;;;;;2.87;1.20;;;;;;;23.62;50.32;97459.38;8393086;28;20282;-66
2021/07/14 13:47:24;;;;;;;3.37;1.00;;;;;;;24.23;48.72;97474.16;8400762;28;20191;-66
2021/07/14 13:51:32;;;;;;;1.47;1.10;;;;;;;24.17;47.54;97484.41;8408179;28;20205;-66
2021/07/14 13:55:35;;;;;;;2.50;1.20;;;;;;;23.82;49.56;97485.56;8412451;28;20214;-66
2021/07/14 13:59:47;;;;;;;4.27;1.60;;;;;;;23.74;49.56;97499.56;8413547;28;20233;-66
2021/07/14 14:03:59;;;;;;;3.00;1.20;;;;;;;23.55;49.24;97505.09;8413583;28;20292;-65
2021/07/14 14:08:07;;;;;;;7.77;1.30;;;;;;;23.60;49.71;97493.06;8413172;28;20231;-65
2021/07/14 14:12:14;;;;;;;3.80;1.50;;;;;;;23.62;49.92;97495.56;8413285;28;20203;-65
2021/07/14 14:16:18;;;;;;;1.90;1.20;;;;;;;24.13;48.36;97501.59;8413103;28;20199;-65
2021/07/14 14:20:26;;;;;;;2.67;1.40;;;;;;;24.69;47.59;97498.25;8412930;28;20227;-65
2021/07/14 14:24:30;;;;;;;2.27;1.23;;;;;;;23.74;49.30;97485.50;8409816;28;20263;-65
2021/07/14 14:28:33;;;;;;;2.27;1.10;;;;;;;23.40;49.46;97491.72;8401198;28;20227;-65
2021/07/14 14:32:38;;;;;;;3.57;1.10;;;;;;;23.29;50.07;97487.53;8386157;28;20493;-64
2021/07/14 14:36:40;;;;;;;1.77;1.20;;;;;;;23.19;48.93;97490.31;8385578;28;20203;-65
2021/07/14 14:40:45;;;;;;;1.77;1.30;;;;;;;23.19;49.51;97492.13;8385724;28;20516;-65
2021/07/14 14:44:48;;;;;;;2.77;1.30;;;;;;;23.29;49.73;97492.81;8386142;28;20202;-65
2021/07/14 14:48:52;;;;;;;1.43;1.20;;;;;;;23.22;49.58;97487.34;8385747;28;20203;-65
2021/07/14 14:52:55;;;;;;;2.77;1.10;;;;;;;23.12;49.60;97493.75;8385233;28;20204;-65
2021/07/14 14:56:58;;;;;;;1.70;1.23;;;;;;;23.11;50.92;97494.72;8385453;28;20207;-65
2021/07/14 15:01:01;;;;;;;1.73;1.20;;;;;;;22.98;50.93;97498.63;8385517;28;20273;-65
2021/07/14 15:05:06;;;;;;;2.27;1.20;;;;;;;22.94;51.07;97504.34;8385395;28;20208;-65
2021/07/14 15:09:09;;;;;;;1.23;1.00;;;;;;;22.81;50.69;97507.44;8385410;28;20519;-65
2021/07/14 15:13:12;;;;;;;1.47;1.27;;;;;;;22.61;51.12;97501.53;8385198;28;20207;-65
2021/07/14 15:17:14;;;;;;;1.03;0.93;;;;;;;22.55;50.90;97496.88;8385104;28;20228;-65
2021/07/14 15:21:19;;;;;;;1.73;1.13;;;;;;;22.58;50.44;97491.28;8384872;28;20334;-65
2021/07/14 15:25:35;;;;;;;2.87;1.10;;;;;;;22.61;51.16;97499.72;8384841;28;20227;-65
2021/07/14 15:29:36;;;;;;;4.00;1.17;;;;;;;22.65;51.29;97500.22;8384563;28;20242;-65
2021/07/14 15:33:39;;;;;;;2.40;1.27;;;;;;;22.49;50.74;97500.16;8384583;28;20505;-65
2021/07/14 15:37:43;;;;;;;2.50;1.03;;;;;;;22.54;51.39;97496.06;8384041;28;20215;-65
2021/07/14 15:41:46;;;;;;;1.60;1.00;;;;;;;22.54;50.53;97487.28;8384676;28;20261;-65
2021/07/14 15:46:09;;;;;;;1.47;1.20;;;;;;;22.50;51.51;97491.22;8384305;28;20196;-65
2021/07/14 15:50:12;;;;;;;3.23;1.07;;;;;;;22.50;50.98;97493.88;8384142;28;20333;-65
2021/07/14 15:54:16;;;;;;;1.53;1.20;;;;;;;22.42;51.21;97492.81;8383939;28;20200;-65
2021/07/14 15:58:19;;;;;;;3.73;1.03;;;;;;;22.05;50.02;97493.03;8383876;28;20226;-65
2021/07/14 16:02:22;;;;;;;1.93;1.00;;;;;;;22.18;51.10;97489.97;8383575;28;20537;-65
2021/07/14 16:06:25;;;;;;;1.10;1.00;;;;;;;22.08;50.01;97492.69;8383487;28;20395;-65
2021/07/14 16:10:29;;;;;;;1.47;1.30;;;;;;;22.11;50.62;97489.78;8383345;28;20206;-65
2021/07/14 16:14:32;;;;;;;2.77;1.10;;;;;;;22.08;50.73;97499.78;8389319;28;20195;-65
2021/07/14 16:18:35;;;;;;;1.50;1.00;;;;;;;22.19;52.17;97494.28;8406315;28;20282;-65
2021/07/14 16:22:38;;;;;;;1.30;1.20;;;;;;;22.18;52.90;97487.34;8414326;28;20250;-65
2021/07/14 16:26:42;;;;;;;1.47;1.20;;;;;;;22.30;52.71;97493.25;8395523;28;20236;-66
2021/07/14 16:30:45;;;;;;;2.90;1.40;;;;;;;22.31;52.93;97489.63;8387303;28;20227;-66
2021/07/14 16:34:49;;;;;;;2.93;1.23;;;;;;;22.42;52.14;97486.72;8400037;28;20277;-71
2021/07/14 16:38:51;;;;;;;1.70;1.10;;;;;;;22.57;51.26;97476.44;8414879;28;20199;-65
2021/07/14 16:42:56;;;;;;;2.63;1.30;;;;;;;22.95;51.17;97475.16;8415176;28;20234;-66
2021/07/14 16:46:58;;;;;;;2.20;1.10;;;;;;;22.90;51.65;97463.41;8414891;28;20454;-65
2021/07/14 16:51:01;;;;;;;2.77;1.43;;;;;;;22.73;50.66;97468.63;8413865;28;20212;-66
2021/07/14 16:55:05;;;;;;;4.73;1.00;;;;;;;22.63;51.52;97465.25;8414580;28;20198;-66
2021/07/14 16:59:10;;;;;;;3.67;1.90;;;;;;;22.62;53.10;97459.16;8414655;28;20421;-66
2021/07/14 17:03:13;;;;;;;1074.17;725.60;;;;;;;22.62;53.46;97464.44;8414381;28;20230;-65
2021/07/14 17:07:15;;;;;;;714.00;559.53;;;;;;;22.56;52.33;97461.56;8414172;28;20246;-65
2021/07/14 17:11:18;;;;;;;788.00;607.33;;;;;;;22.51;52.31;97466.53;8414283;28;20405;-65
2021/07/14 17:15:23;;;;;;;567.57;446.07;;;;;;;22.59;52.60;97475.28;8414153;28;20199;-65
2021/07/14 17:19:25;;;;;;;99.37;67.67;;;;;;;22.58;52.16;97480.72;8413957;28;20206;-65
2021/07/14 17:23:28;;;;;;;200.30;139.63;;;;;;;22.59;53.25;97480.56;8414128;28;20234;-65
2021/07/14 17:27:31;;;;;;;189.43;134.33;;;;;;;22.53;53.88;97480.38;8413942;28;20199;-65
2021/07/14 17:31:35;;;;;;;153.23;106.87;;;;;;;22.50;54.27;97486.78;8414188;28;20237;-65
2021/07/14 17:35:40;;;;;;;103.90;72.13;;;;;;;22.40;54.07;97486.88;8414166;28;20514;-65
2021/07/14 17:39:42;;;;;;;68.33;46.83;;;;;;;22.41;55.14;97487.72;8413960;28;20199;-65
2021/07/14 17:43:46;;;;;;;31.77;22.30;;;;;;;22.24;53.80;97482.28;8413770;28;20226;-68
2021/07/14 17:47:50;;;;;;;37.87;24.60;;;;;;;22.32;54.49;97486.81;8413714;28;20202;-65
2021/07/14 17:51:53;;;;;;;16.90;10.67;;;;;;;22.37;53.97;97483.72;8413459;28;20289;-66
2021/07/14 17:55:56;;;;;;;9.87;5.83;;;;;;;22.41;54.61;97478.00;8413659;28;20403;-66
2021/07/14 18:00:00;;;;;;;22.27;6.87;;;;;;;22.33;55.28;97475.31;8414142;28;20199;-65
2021/07/14 18:04:06;;;;;;;13.47;9.43;;;;;;;22.31;55.78;97469.34;8420228;28;20520;-63
2021/07/14 18:08:09;;;;;;;24.17;9.63;;;;;;;22.31;54.95;97452.69;8419982;28;20229;-67
2021/07/14 18:12:14;;;;;;;7.10;4.67;;;;;;;22.30;55.55;97474.78;8420307;28;20485;-67
2021/07/14 18:16:17;;;;;;;3.80;2.77;;;;;;;22.24;56.74;97471.75;8420213;28;20197;-66
2021/07/14 18:20:21;;;;;;;7.27;4.33;;;;;;;22.21;57.28;97468.56;8419873;28;20199;-66
2021/07/14 18:24:24;;;;;;;1.80;1.27;;;;;;;22.09;56.71;97468.00;8419516;28;20231;-66
2021/07/14 18:28:27;;;;;;;1.97;1.50;;;;;;;22.02;57.16;97459.84;8419514;28;20238;-67
2021/07/14 18:32:30;;;;;;;2.33;1.27;;;;;;;21.99;55.98;97459.31;8419388;28;20226;-66
2021/07/14 18:36:34;;;;;;;2.10;1.43;;;;;;;21.88;55.91;97456.97;8419482;28;20225;-66
2021/07/14 18:40:37;;;;;;;2.20;1.20;;;;;;;21.85;56.35;97463.34;8418887;28;20208;-66
2021/07/14 18:44:40;;;;;;;2.77;1.60;;;;;;;21.74;55.82;97466.19;8419019;28;20229;-66
2021/07/14 18:48:43;;;;;;;1.40;1.30;;;;;;;21.63;56.81;97462.81;8419324;28;20389;-67
2021/07/14 18:52:47;;;;;;;2.20;1.50;;;;;;;21.63;56.34;97460.19;8419440;28;20246;-67
2021/07/14 18:56:51;;;;;;;2.03;1.50;;;;;;;21.55;58.75;97461.91;8419354;28;20206;-67
2021/07/14 19:00:54;;;;;;;2.83;1.37;;;;;;;21.53;59.85;97475.22;8419638;28;20209;-67
2021/07/14 19:04:57;;;;;;;3.03;1.70;;;;;;;21.45;60.66;97472.50;8408335;28;20491;-67
2021/07/14 19:09:01;;;;;;;3.07;1.70;;;;;;;21.39;61.49;97480.97;8400228;28;20200;-67